sensor_id;sensor_type;location;lat;lon;timestamp;P1;durP1;ratioP1;P2;durP2;ratioP2
46675;SDS011;32412;51.478;5.694;2022-10-31T00:02:04;28.45;;;14.23;;
46675;SDS011;32412;51.478;5.694;2022-10-31T00:04:30;23.48;;;14.23;;
46675;SDS011;32412;51.478;5.694;2022-10-31T00:06:56;23.65;;;13.55;;
46675;SDS011;32412;51.478;5.694;2022-10-31T00:09:21;24.73;;;14.27;;
46675;SDS011;32412;51.478;5.694;2022-10-31T00:11:47;29.52;;;14.65;;
46675;SDS011;32412;51.478;5.694;2022-10-31T00:14:12;25.45;;;14.68;;
46675;SDS011;32412;51.478;5.694;2022-10-31T00:16:38;24.45;;;13.60;;
46675;SDS011;32412;51.478;5.694;2022-10-31T00:19:06;27.67;;;13.43;;
46675;SDS011;32412;51.478;5.694;2022-10-31T00:21:32;20.30;;;13.23;;
46675;SDS011;32412;51.478;5.694;2022-10-31T00:23:59;25.77;;;13.30;;
46675;SDS011;32412;51.478;5.694;2022-10-31T00:26:26;27.98;;;14.73;;
46675;SDS011;32412;51.478;5.694;2022-10-31T00:28:56;21.20;;;12.43;;
46675;SDS011;32412;51.478;5.694;2022-10-31T00:31:22;25.92;;;13.23;;
46675;SDS011;32412;51.478;5.694;2022-10-31T00:33:48;21.60;;;12.50;;
46675;SDS011;32412;51.478;5.694;2022-10-31T00:36:15;23.77;;;13.10;;
46675;SDS011;32412;51.478;5.694;2022-10-31T00:38:42;23.40;;;12.80;;
46675;SDS011;32412;51.478;5.694;2022-10-31T00:41:09;21.30;;;12.95;;
46675;SDS011;32412;51.478;5.694;2022-10-31T00:43:35;29.80;;;13.40;;
46675;SDS011;32412;51.478;5.694;2022-10-31T00:46:01;20.20;;;12.18;;
46675;SDS011;32412;51.478;5.694;2022-10-31T00:48:26;28.05;;;13.70;;
46675;SDS011;32412;51.478;5.694;2022-10-31T00:50:52;23.30;;;12.52;;
46675;SDS011;32412;51.478;5.694;2022-10-31T00:53:18;22.45;;;13.32;;
46675;SDS011;32412;51.478;5.694;2022-10-31T00:55:43;22.40;;;12.68;;
46675;SDS011;32412;51.478;5.694;2022-10-31T00:58:09;22.40;;;11.93;;
46675;SDS011;32412;51.478;5.694;2022-10-31T01:00:35;26.77;;;13.02;;
46675;SDS011;32412;51.478;5.694;2022-10-31T01:03:00;25.42;;;13.20;;
46675;SDS011;32412;51.478;5.694;2022-10-31T01:05:26;23.70;;;12.68;;
46675;SDS011;32412;51.478;5.694;2022-10-31T01:07:52;28.23;;;13.63;;
46675;SDS011;32412;51.478;5.694;2022-10-31T01:10:17;25.42;;;12.93;;
46675;SDS011;32412;51.478;5.694;2022-10-31T01:12:44;26.88;;;12.70;;
46675;SDS011;32412;51.478;5.694;2022-10-31T01:15:14;22.95;;;12.18;;
46675;SDS011;32412;51.478;5.694;2022-10-31T01:17:42;21.10;;;12.88;;
46675;SDS011;32412;51.478;5.694;2022-10-31T01:20:08;30.88;;;12.63;;
46675;SDS011;32412;51.478;5.694;2022-10-31T01:22:35;20.27;;;13.13;;
46675;SDS011;32412;51.478;5.694;2022-10-31T01:25:00;24.90;;;13.15;;
46675;SDS011;32412;51.478;5.694;2022-10-31T01:27:27;25.45;;;12.82;;
46675;SDS011;32412;51.478;5.694;2022-10-31T01:29:52;24.92;;;12.63;;
46675;SDS011;32412;51.478;5.694;2022-10-31T01:32:18;24.65;;;12.38;;
46675;SDS011;32412;51.478;5.694;2022-10-31T01:34:43;23.30;;;12.15;;
46675;SDS011;32412;51.478;5.694;2022-10-31T01:37:09;26.52;;;13.30;;
46675;SDS011;32412;51.478;5.694;2022-10-31T01:39:35;22.52;;;12.70;;
46675;SDS011;32412;51.478;5.694;2022-10-31T01:42:00;22.77;;;13.35;;
46675;SDS011;32412;51.478;5.694;2022-10-31T01:47:35;24.67;;;13.25;;
46675;SDS011;32412;51.478;5.694;2022-10-31T01:49:46;32.65;;;12.77;;
46675;SDS011;32412;51.478;5.694;2022-10-31T01:54:58;26.85;;;13.38;;
46675;SDS011;32412;51.478;5.694;2022-10-31T01:57:50;28.48;;;14.45;;
46675;SDS011;32412;51.478;5.694;2022-10-31T02:00:19;25.48;;;15.30;;
46675;SDS011;32412;51.478;5.694;2022-10-31T02:02:45;27.15;;;15.30;;
46675;SDS011;32412;51.478;5.694;2022-10-31T02:05:14;35.03;;;16.85;;
46675;SDS011;32412;51.478;5.694;2022-10-31T02:07:44;28.40;;;15.02;;
46675;SDS011;32412;51.478;5.694;2022-10-31T02:10:19;30.13;;;16.10;;
46675;SDS011;32412;51.478;5.694;2022-10-31T02:12:46;35.72;;;15.43;;
46675;SDS011;32412;51.478;5.694;2022-10-31T02:15:13;26.25;;;15.57;;
46675;SDS011;32412;51.478;5.694;2022-10-31T02:17:39;29.95;;;16.33;;
46675;SDS011;32412;51.478;5.694;2022-10-31T02:20:08;27.63;;;15.68;;
46675;SDS011;32412;51.478;5.694;2022-10-31T02:33:25;26.45;;;16.05;;
46675;SDS011;32412;51.478;5.694;2022-10-31T02:36:16;27.38;;;15.88;;
46675;SDS011;32412;51.478;5.694;2022-10-31T02:44:32;30.40;;;15.70;;
46675;SDS011;32412;51.478;5.694;2022-10-31T02:47:17;32.50;;;16.23;;
46675;SDS011;32412;51.478;5.694;2022-10-31T02:49:53;29.63;;;14.45;;
46675;SDS011;32412;51.478;5.694;2022-10-31T02:52:27;28.77;;;15.70;;
46675;SDS011;32412;51.478;5.694;2022-10-31T02:54:54;31.00;;;15.90;;
46675;SDS011;32412;51.478;5.694;2022-10-31T02:57:24;31.48;;;16.65;;
46675;SDS011;32412;51.478;5.694;2022-10-31T02:59:55;30.73;;;15.57;;
46675;SDS011;32412;51.478;5.694;2022-10-31T03:08:16;28.02;;;15.68;;
46675;SDS011;32412;51.478;5.694;2022-10-31T03:11:00;25.25;;;15.20;;
46675;SDS011;32412;51.478;5.694;2022-10-31T03:18:40;30.65;;;16.33;;
46675;SDS011;32412;51.478;5.694;2022-10-31T03:21:24;29.00;;;16.98;;
46675;SDS011;32412;51.478;5.694;2022-10-31T03:23:59;30.90;;;16.33;;
46675;SDS011;32412;51.478;5.694;2022-10-31T03:26:26;25.70;;;14.70;;
46675;SDS011;32412;51.478;5.694;2022-10-31T03:29:03;30.10;;;15.63;;
46675;SDS011;32412;51.478;5.694;2022-10-31T03:31:51;30.40;;;15.25;;
46675;SDS011;32412;51.478;5.694;2022-10-31T03:34:22;32.05;;;15.35;;
46675;SDS011;32412;51.478;5.694;2022-10-31T03:36:49;28.38;;;14.90;;
46675;SDS011;32412;51.478;5.694;2022-10-31T03:39:18;33.80;;;15.80;;
46675;SDS011;32412;51.478;5.694;2022-10-31T03:41:49;26.75;;;14.65;;
46675;SDS011;32412;51.478;5.694;2022-10-31T03:44:21;26.58;;;15.30;;
46675;SDS011;32412;51.478;5.694;2022-10-31T03:46:49;28.75;;;15.57;;
46675;SDS011;32412;51.478;5.694;2022-10-31T03:49:15;28.98;;;15.05;;
46675;SDS011;32412;51.478;5.694;2022-10-31T03:54:13;32.53;;;16.08;;
46675;SDS011;32412;51.478;5.694;2022-10-31T03:57:43;28.30;;;15.98;;
46675;SDS011;32412;51.478;5.694;2022-10-31T04:00:00;25.60;;;15.32;;
46675;SDS011;32412;51.478;5.694;2022-10-31T04:02:32;24.77;;;15.48;;
46675;SDS011;32412;51.478;5.694;2022-10-31T04:04:59;29.73;;;16.45;;
46675;SDS011;32412;51.478;5.694;2022-10-31T04:07:27;36.28;;;18.02;;
46675;SDS011;32412;51.478;5.694;2022-10-31T04:09:56;28.25;;;17.33;;
46675;SDS011;32412;51.478;5.694;2022-10-31T04:12:25;34.00;;;17.85;;
46675;SDS011;32412;51.478;5.694;2022-10-31T04:14:53;32.45;;;17.25;;
46675;SDS011;32412;51.478;5.694;2022-10-31T04:17:21;32.55;;;17.73;;
46675;SDS011;32412;51.478;5.694;2022-10-31T04:19:48;33.08;;;17.98;;
46675;SDS011;32412;51.478;5.694;2022-10-31T04:22:13;37.40;;;17.25;;
46675;SDS011;32412;51.478;5.694;2022-10-31T04:24:39;32.80;;;17.50;;
46675;SDS011;32412;51.478;5.694;2022-10-31T04:27:06;32.08;;;17.98;;
46675;SDS011;32412;51.478;5.694;2022-10-31T04:29:32;31.63;;;17.40;;
46675;SDS011;32412;51.478;5.694;2022-10-31T04:31:57;29.65;;;17.42;;
46675;SDS011;32412;51.478;5.694;2022-10-31T04:34:23;32.10;;;17.40;;
46675;SDS011;32412;51.478;5.694;2022-10-31T04:36:49;38.13;;;18.35;;
46675;SDS011;32412;51.478;5.694;2022-10-31T04:39:14;32.15;;;16.77;;
46675;SDS011;32412;51.478;5.694;2022-10-31T04:41:40;33.83;;;18.67;;
46675;SDS011;32412;51.478;5.694;2022-10-31T04:44:05;31.67;;;18.65;;
46675;SDS011;32412;51.478;5.694;2022-10-31T04:46:31;34.50;;;18.00;;
46675;SDS011;32412;51.478;5.694;2022-10-31T04:48:57;31.70;;;16.75;;
46675;SDS011;32412;51.478;5.694;2022-10-31T04:51:22;29.63;;;18.48;;
46675;SDS011;32412;51.478;5.694;2022-10-31T04:53:48;33.58;;;18.20;;
46675;SDS011;32412;51.478;5.694;2022-10-31T04:56:13;34.05;;;17.88;;
46675;SDS011;32412;51.478;5.694;2022-10-31T04:58:39;34.72;;;20.25;;
46675;SDS011;32412;51.478;5.694;2022-10-31T05:01:05;33.05;;;17.85;;
46675;SDS011;32412;51.478;5.694;2022-10-31T05:03:30;37.15;;;19.92;;
46675;SDS011;32412;51.478;5.694;2022-10-31T05:05:56;33.85;;;18.80;;
46675;SDS011;32412;51.478;5.694;2022-10-31T05:08:21;34.50;;;19.73;;
46675;SDS011;32412;51.478;5.694;2022-10-31T05:10:47;35.67;;;20.00;;
46675;SDS011;32412;51.478;5.694;2022-10-31T05:13:13;33.65;;;18.55;;
46675;SDS011;32412;51.478;5.694;2022-10-31T05:15:40;37.65;;;20.23;;
46675;SDS011;32412;51.478;5.694;2022-10-31T05:18:06;33.25;;;18.95;;
46675;SDS011;32412;51.478;5.694;2022-10-31T05:20:31;34.65;;;19.17;;
46675;SDS011;32412;51.478;5.694;2022-10-31T05:22:58;39.35;;;19.77;;
46675;SDS011;32412;51.478;5.694;2022-10-31T05:25:25;36.72;;;20.10;;
46675;SDS011;32412;51.478;5.694;2022-10-31T05:27:53;40.30;;;20.33;;
46675;SDS011;32412;51.478;5.694;2022-10-31T05:30:25;37.72;;;19.27;;
46675;SDS011;32412;51.478;5.694;2022-10-31T05:32:53;40.83;;;20.87;;
46675;SDS011;32412;51.478;5.694;2022-10-31T05:35:20;39.50;;;20.38;;
46675;SDS011;32412;51.478;5.694;2022-10-31T05:37:48;38.65;;;19.92;;
46675;SDS011;32412;51.478;5.694;2022-10-31T05:40:14;38.10;;;19.85;;
46675;SDS011;32412;51.478;5.694;2022-10-31T05:42:41;41.38;;;20.55;;
46675;SDS011;32412;51.478;5.694;2022-10-31T05:45:09;35.75;;;19.63;;
46675;SDS011;32412;51.478;5.694;2022-10-31T05:47:36;37.83;;;20.83;;
46675;SDS011;32412;51.478;5.694;2022-10-31T05:50:02;37.17;;;20.30;;
46675;SDS011;32412;51.478;5.694;2022-10-31T05:52:28;44.03;;;20.77;;
46675;SDS011;32412;51.478;5.694;2022-10-31T05:54:54;45.25;;;21.38;;
46675;SDS011;32412;51.478;5.694;2022-10-31T05:57:19;41.17;;;21.77;;
46675;SDS011;32412;51.478;5.694;2022-10-31T05:59:45;39.03;;;20.95;;
46675;SDS011;32412;51.478;5.694;2022-10-31T06:02:11;39.92;;;22.38;;
46675;SDS011;32412;51.478;5.694;2022-10-31T06:04:36;45.00;;;20.90;;
46675;SDS011;32412;51.478;5.694;2022-10-31T06:07:02;38.17;;;20.88;;
46675;SDS011;32412;51.478;5.694;2022-10-31T06:09:28;37.83;;;20.67;;
46675;SDS011;32412;51.478;5.694;2022-10-31T06:11:53;43.67;;;21.95;;
46675;SDS011;32412;51.478;5.694;2022-10-31T06:14:19;41.55;;;21.73;;
46675;SDS011;32412;51.478;5.694;2022-10-31T06:16:44;38.65;;;20.40;;
46675;SDS011;32412;51.478;5.694;2022-10-31T06:19:10;43.83;;;21.77;;
46675;SDS011;32412;51.478;5.694;2022-10-31T06:21:36;39.83;;;21.42;;
46675;SDS011;32412;51.478;5.694;2022-10-31T06:24:01;41.67;;;21.58;;
46675;SDS011;32412;51.478;5.694;2022-10-31T06:26:27;46.03;;;21.73;;
46675;SDS011;32412;51.478;5.694;2022-10-31T06:28:53;45.20;;;21.70;;
46675;SDS011;32412;51.478;5.694;2022-10-31T06:31:18;41.47;;;21.50;;
46675;SDS011;32412;51.478;5.694;2022-10-31T06:33:44;39.90;;;21.23;;
46675;SDS011;32412;51.478;5.694;2022-10-31T06:36:09;43.28;;;21.25;;
46675;SDS011;32412;51.478;5.694;2022-10-31T06:38:35;37.60;;;21.38;;
46675;SDS011;32412;51.478;5.694;2022-10-31T06:41:04;40.03;;;20.48;;
46675;SDS011;32412;51.478;5.694;2022-10-31T06:43:30;38.45;;;19.73;;
46675;SDS011;32412;51.478;5.694;2022-10-31T06:45:57;37.78;;;20.27;;
46675;SDS011;32412;51.478;5.694;2022-10-31T06:48:22;42.45;;;20.83;;
46675;SDS011;32412;51.478;5.694;2022-10-31T06:50:48;46.30;;;22.33;;
46675;SDS011;32412;51.478;5.694;2022-10-31T06:53:14;44.20;;;22.15;;
46675;SDS011;32412;51.478;5.694;2022-10-31T06:55:40;43.10;;;21.23;;
46675;SDS011;32412;51.478;5.694;2022-10-31T06:58:07;44.33;;;21.23;;
46675;SDS011;32412;51.478;5.694;2022-10-31T07:00:35;42.05;;;20.73;;
46675;SDS011;32412;51.478;5.694;2022-10-31T07:03:02;34.78;;;20.58;;
46675;SDS011;32412;51.478;5.694;2022-10-31T07:05:34;41.13;;;21.75;;
46675;SDS011;32412;51.478;5.694;2022-10-31T07:08:00;37.70;;;20.42;;
46675;SDS011;32412;51.478;5.694;2022-10-31T07:10:28;39.97;;;20.60;;
46675;SDS011;32412;51.478;5.694;2022-10-31T07:12:56;41.28;;;21.40;;
46675;SDS011;32412;51.478;5.694;2022-10-31T07:15:23;40.42;;;22.30;;
46675;SDS011;32412;51.478;5.694;2022-10-31T07:17:49;39.95;;;21.10;;
46675;SDS011;32412;51.478;5.694;2022-10-31T07:20:15;40.25;;;21.45;;
46675;SDS011;32412;51.478;5.694;2022-10-31T07:22:41;38.63;;;21.50;;
46675;SDS011;32412;51.478;5.694;2022-10-31T07:25:07;39.13;;;20.75;;
46675;SDS011;32412;51.478;5.694;2022-10-31T07:27:39;36.00;;;20.27;;
46675;SDS011;32412;51.478;5.694;2022-10-31T07:32:37;38.65;;;20.75;;
46675;SDS011;32412;51.478;5.694;2022-10-31T07:35:07;38.67;;;20.47;;
46675;SDS011;32412;51.478;5.694;2022-10-31T07:37:34;41.47;;;19.98;;
46675;SDS011;32412;51.478;5.694;2022-10-31T07:39:59;36.20;;;20.00;;
46675;SDS011;32412;51.478;5.694;2022-10-31T07:42:26;33.95;;;19.60;;
46675;SDS011;32412;51.478;5.694;2022-10-31T07:44:52;39.85;;;21.55;;
46675;SDS011;32412;51.478;5.694;2022-10-31T07:47:18;35.33;;;21.23;;
46675;SDS011;32412;51.478;5.694;2022-10-31T07:49:43;38.95;;;21.05;;
46675;SDS011;32412;51.478;5.694;2022-10-31T07:52:09;34.47;;;19.35;;
46675;SDS011;32412;51.478;5.694;2022-10-31T07:54:34;35.65;;;20.88;;
46675;SDS011;32412;51.478;5.694;2022-10-31T07:57:00;36.25;;;21.48;;
46675;SDS011;32412;51.478;5.694;2022-10-31T07:59:28;38.40;;;20.73;;
46675;SDS011;32412;51.478;5.694;2022-10-31T08:01:54;35.53;;;20.50;;
46675;SDS011;32412;51.478;5.694;2022-10-31T08:04:20;40.70;;;21.98;;
46675;SDS011;32412;51.478;5.694;2022-10-31T08:06:46;42.55;;;21.42;;
46675;SDS011;32412;51.478;5.694;2022-10-31T08:09:13;38.72;;;22.38;;
46675;SDS011;32412;51.478;5.694;2022-10-31T08:11:38;45.85;;;24.27;;
46675;SDS011;32412;51.478;5.694;2022-10-31T08:14:04;39.08;;;23.50;;
46675;SDS011;32412;51.478;5.694;2022-10-31T08:16:30;44.03;;;23.50;;
46675;SDS011;32412;51.478;5.694;2022-10-31T08:18:56;42.88;;;24.17;;
46675;SDS011;32412;51.478;5.694;2022-10-31T08:21:21;39.80;;;22.95;;
46675;SDS011;32412;51.478;5.694;2022-10-31T08:23:47;41.13;;;21.63;;
46675;SDS011;32412;51.478;5.694;2022-10-31T08:26:13;34.92;;;21.58;;
46675;SDS011;32412;51.478;5.694;2022-10-31T08:28:38;38.58;;;21.42;;
46675;SDS011;32412;51.478;5.694;2022-10-31T08:31:04;31.42;;;19.90;;
46675;SDS011;32412;51.478;5.694;2022-10-31T08:33:30;34.53;;;20.65;;
46675;SDS011;32412;51.478;5.694;2022-10-31T08:35:59;39.58;;;21.92;;
46675;SDS011;32412;51.478;5.694;2022-10-31T08:38:25;34.00;;;20.38;;
46675;SDS011;32412;51.478;5.694;2022-10-31T08:40:51;34.13;;;21.23;;
46675;SDS011;32412;51.478;5.694;2022-10-31T08:43:17;37.33;;;21.17;;
46675;SDS011;32412;51.478;5.694;2022-10-31T08:45:43;36.83;;;22.48;;
46675;SDS011;32412;51.478;5.694;2022-10-31T08:48:12;30.88;;;20.70;;
46675;SDS011;32412;51.478;5.694;2022-10-31T08:50:40;39.05;;;22.20;;
46675;SDS011;32412;51.478;5.694;2022-10-31T08:53:07;39.72;;;21.83;;
46675;SDS011;32412;51.478;5.694;2022-10-31T08:55:37;36.90;;;19.30;;
46675;SDS011;32412;51.478;5.694;2022-10-31T08:58:05;35.40;;;20.05;;
46675;SDS011;32412;51.478;5.694;2022-10-31T09:00:32;32.17;;;19.30;;
46675;SDS011;32412;51.478;5.694;2022-10-31T09:03:03;41.95;;;20.98;;
46675;SDS011;32412;51.478;5.694;2022-10-31T09:05:33;37.33;;;21.08;;
46675;SDS011;32412;51.478;5.694;2022-10-31T09:07:59;33.75;;;19.25;;
46675;SDS011;32412;51.478;5.694;2022-10-31T09:10:26;38.08;;;21.38;;
46675;SDS011;32412;51.478;5.694;2022-10-31T09:13:26;37.75;;;21.40;;
46675;SDS011;32412;51.478;5.694;2022-10-31T09:15:46;36.50;;;20.90;;
46675;SDS011;32412;51.478;5.694;2022-10-31T09:18:14;37.53;;;20.65;;
46675;SDS011;32412;51.478;5.694;2022-10-31T09:20:40;32.30;;;19.83;;
46675;SDS011;32412;51.478;5.694;2022-10-31T09:23:12;36.78;;;20.08;;
46675;SDS011;32412;51.478;5.694;2022-10-31T09:25:39;30.58;;;19.70;;
46675;SDS011;32412;51.478;5.694;2022-10-31T09:28:05;32.33;;;19.50;;
46675;SDS011;32412;51.478;5.694;2022-10-31T09:30:33;34.53;;;18.83;;
46675;SDS011;32412;51.478;5.694;2022-10-31T09:33:01;36.90;;;19.05;;
46675;SDS011;32412;51.478;5.694;2022-10-31T09:35:34;29.73;;;17.80;;
46675;SDS011;32412;51.478;5.694;2022-10-31T09:38:04;35.42;;;19.65;;
46675;SDS011;32412;51.478;5.694;2022-10-31T09:40:35;35.65;;;19.42;;
46675;SDS011;32412;51.478;5.694;2022-10-31T09:43:03;29.50;;;18.17;;
46675;SDS011;32412;51.478;5.694;2022-10-31T09:45:56;34.33;;;19.42;;
46675;SDS011;32412;51.478;5.694;2022-10-31T09:48:37;34.45;;;18.98;;
46675;SDS011;32412;51.478;5.694;2022-10-31T09:51:37;31.90;;;18.70;;
46675;SDS011;32412;51.478;5.694;2022-10-31T09:54:16;34.47;;;19.58;;
46675;SDS011;32412;51.478;5.694;2022-10-31T09:56:46;34.60;;;19.85;;
46675;SDS011;32412;51.478;5.694;2022-10-31T09:59:24;34.58;;;19.02;;
46675;SDS011;32412;51.478;5.694;2022-10-31T10:01:56;31.67;;;18.92;;
46675;SDS011;32412;51.478;5.694;2022-10-31T10:04:40;35.60;;;18.88;;
46675;SDS011;32412;51.478;5.694;2022-10-31T10:09:57;35.88;;;18.95;;
46675;SDS011;32412;51.478;5.694;2022-10-31T10:21:12;33.45;;;19.58;;
46675;SDS011;32412;51.478;5.694;2022-10-31T10:26:27;32.80;;;18.85;;
46675;SDS011;32412;51.478;5.694;2022-10-31T10:29:08;32.53;;;18.30;;
46675;SDS011;32412;51.478;5.694;2022-10-31T10:32:17;37.28;;;19.63;;
46675;SDS011;32412;51.478;5.694;2022-10-31T10:34:47;35.83;;;19.40;;
46675;SDS011;32412;51.478;5.694;2022-10-31T10:37:21;34.75;;;20.15;;
46675;SDS011;32412;51.478;5.694;2022-10-31T10:39:59;36.45;;;20.58;;
46675;SDS011;32412;51.478;5.694;2022-10-31T10:42:32;35.53;;;20.50;;
46675;SDS011;32412;51.478;5.694;2022-10-31T10:45:19;38.47;;;20.75;;
46675;SDS011;32412;51.478;5.694;2022-10-31T10:50:41;38.20;;;20.45;;
46675;SDS011;32412;51.478;5.694;2022-10-31T10:58:34;36.10;;;20.20;;
46675;SDS011;32412;51.478;5.694;2022-10-31T11:01:01;40.53;;;20.55;;
46675;SDS011;32412;51.478;5.694;2022-10-31T11:03:34;34.90;;;19.00;;
46675;SDS011;32412;51.478;5.694;2022-10-31T11:06:00;38.00;;;20.25;;
46675;SDS011;32412;51.478;5.694;2022-10-31T11:08:28;38.92;;;20.92;;
46675;SDS011;32412;51.478;5.694;2022-10-31T11:11:02;35.67;;;19.95;;
46675;SDS011;32412;51.478;5.694;2022-10-31T11:13:28;33.85;;;20.73;;
46675;SDS011;32412;51.478;5.694;2022-10-31T11:18:42;33.50;;;19.10;;
46675;SDS011;32412;51.478;5.694;2022-10-31T11:21:28;31.42;;;18.40;;
46675;SDS011;32412;51.478;5.694;2022-10-31T11:26:36;37.30;;;20.25;;
46675;SDS011;32412;51.478;5.694;2022-10-31T11:29:09;33.55;;;20.08;;
46675;SDS011;32412;51.478;5.694;2022-10-31T11:31:42;30.65;;;18.65;;
46675;SDS011;32412;51.478;5.694;2022-10-31T11:34:14;35.55;;;18.17;;
46675;SDS011;32412;51.478;5.694;2022-10-31T11:36:44;34.53;;;18.45;;
46675;SDS011;32412;51.478;5.694;2022-10-31T11:39:15;30.63;;;17.67;;
46675;SDS011;32412;51.478;5.694;2022-10-31T11:41:47;30.52;;;18.30;;
46675;SDS011;32412;51.478;5.694;2022-10-31T11:44:25;28.27;;;18.17;;
46675;SDS011;32412;51.478;5.694;2022-10-31T11:46:57;36.30;;;18.48;;
46675;SDS011;32412;51.478;5.694;2022-10-31T11:49:37;30.63;;;18.38;;
46675;SDS011;32412;51.478;5.694;2022-10-31T11:52:06;29.90;;;17.77;;
46675;SDS011;32412;51.478;5.694;2022-10-31T11:54:41;27.02;;;17.20;;
46675;SDS011;32412;51.478;5.694;2022-10-31T11:57:28;31.40;;;17.63;;
46675;SDS011;32412;51.478;5.694;2022-10-31T12:00:21;31.77;;;17.42;;
46675;SDS011;32412;51.478;5.694;2022-10-31T12:02:47;36.70;;;17.55;;
46675;SDS011;32412;51.478;5.694;2022-10-31T12:05:20;30.35;;;16.90;;
46675;SDS011;32412;51.478;5.694;2022-10-31T12:07:50;26.38;;;16.27;;
46675;SDS011;32412;51.478;5.694;2022-10-31T12:10:16;31.08;;;17.80;;
46675;SDS011;32412;51.478;5.694;2022-10-31T12:15:56;29.52;;;15.50;;
46675;SDS011;32412;51.478;5.694;2022-10-31T12:18:50;28.58;;;15.98;;
46675;SDS011;32412;51.478;5.694;2022-10-31T12:27:17;24.33;;;14.23;;
46675;SDS011;32412;51.478;5.694;2022-10-31T12:35:20;27.65;;;13.73;;
46675;SDS011;32412;51.478;5.694;2022-10-31T12:46:12;18.92;;;10.70;;
46675;SDS011;32412;51.478;5.694;2022-10-31T12:51:50;22.40;;;10.88;;
46675;SDS011;32412;51.478;5.694;2022-10-31T12:57:17;16.20;;;10.55;;
46675;SDS011;32412;51.478;5.694;2022-10-31T13:00:00;17.77;;;11.38;;
46675;SDS011;32412;51.478;5.694;2022-10-31T13:05:31;25.48;;;11.70;;
46675;SDS011;32412;51.478;5.694;2022-10-31T13:08:10;20.48;;;12.23;;
46675;SDS011;32412;51.478;5.694;2022-10-31T13:13:23;21.48;;;11.77;;
46675;SDS011;32412;51.478;5.694;2022-10-31T13:16:12;20.60;;;11.20;;
46675;SDS011;32412;51.478;5.694;2022-10-31T13:21:12;20.25;;;11.18;;
46675;SDS011;32412;51.478;5.694;2022-10-31T13:23:46;24.17;;;11.63;;
46675;SDS011;32412;51.478;5.694;2022-10-31T13:26:19;23.02;;;11.10;;
46675;SDS011;32412;51.478;5.694;2022-10-31T13:31:28;19.50;;;10.48;;
46675;SDS011;32412;51.478;5.694;2022-10-31T13:33:57;22.08;;;11.32;;
46675;SDS011;32412;51.478;5.694;2022-10-31T13:38:55;22.90;;;12.10;;
46675;SDS011;32412;51.478;5.694;2022-10-31T13:54:36;20.05;;;11.95;;
46675;SDS011;32412;51.478;5.694;2022-10-31T13:57:14;20.27;;;12.60;;
46675;SDS011;32412;51.478;5.694;2022-10-31T13:59:59;31.25;;;12.75;;
46675;SDS011;32412;51.478;5.694;2022-10-31T14:02:30;21.40;;;12.13;;
46675;SDS011;32412;51.478;5.694;2022-10-31T14:05:00;21.67;;;11.43;;
46675;SDS011;32412;51.478;5.694;2022-10-31T14:07:27;19.63;;;11.75;;
46675;SDS011;32412;51.478;5.694;2022-10-31T14:09:56;23.63;;;11.95;;
46675;SDS011;32412;51.478;5.694;2022-10-31T14:12:52;24.05;;;12.23;;
46675;SDS011;32412;51.478;5.694;2022-10-31T14:15:31;21.52;;;12.13;;
46675;SDS011;32412;51.478;5.694;2022-10-31T14:18:04;23.83;;;12.45;;
46675;SDS011;32412;51.478;5.694;2022-10-31T14:28:46;21.60;;;11.75;;
46675;SDS011;32412;51.478;5.694;2022-10-31T14:34:17;18.50;;;11.15;;
46675;SDS011;32412;51.478;5.694;2022-10-31T14:36:53;22.00;;;11.68;;
46675;SDS011;32412;51.478;5.694;2022-10-31T14:39:32;17.02;;;10.93;;
46675;SDS011;32412;51.478;5.694;2022-10-31T14:50:57;21.73;;;10.05;;
46675;SDS011;32412;51.478;5.694;2022-10-31T14:53:28;20.27;;;9.82;;
46675;SDS011;32412;51.478;5.694;2022-10-31T14:55:57;18.48;;;9.80;;
46675;SDS011;32412;51.478;5.694;2022-10-31T15:01:15;18.63;;;8.75;;
46675;SDS011;32412;51.478;5.694;2022-10-31T15:03:53;20.35;;;9.27;;
46675;SDS011;32412;51.478;5.694;2022-10-31T15:06:25;23.77;;;8.98;;
46675;SDS011;32412;51.478;5.694;2022-10-31T15:08:55;15.20;;;8.73;;
46675;SDS011;32412;51.478;5.694;2022-10-31T15:11:24;14.23;;;7.72;;
46675;SDS011;32412;51.478;5.694;2022-10-31T15:13:55;18.88;;;9.07;;
46675;SDS011;32412;51.478;5.694;2022-10-31T15:16:23;15.32;;;8.35;;
46675;SDS011;32412;51.478;5.694;2022-10-31T15:18:52;20.75;;;8.98;;
46675;SDS011;32412;51.478;5.694;2022-10-31T15:21:23;17.55;;;8.63;;
46675;SDS011;32412;51.478;5.694;2022-10-31T15:23:51;19.30;;;8.60;;
46675;SDS011;32412;51.478;5.694;2022-10-31T15:26:19;12.18;;;7.60;;
46675;SDS011;32412;51.478;5.694;2022-10-31T15:28:56;17.58;;;7.82;;
46675;SDS011;32412;51.478;5.694;2022-10-31T15:31:30;21.67;;;7.50;;
46675;SDS011;32412;51.478;5.694;2022-10-31T15:33:59;17.23;;;7.80;;
46675;SDS011;32412;51.478;5.694;2022-10-31T15:36:36;12.32;;;7.60;;
46675;SDS011;32412;51.478;5.694;2022-10-31T15:39:02;17.67;;;8.18;;
46675;SDS011;32412;51.478;5.694;2022-10-31T15:43:58;16.13;;;7.05;;
46675;SDS011;32412;51.478;5.694;2022-10-31T15:46:28;14.35;;;6.63;;
46675;SDS011;32412;51.478;5.694;2022-10-31T15:48:55;12.38;;;7.22;;
46675;SDS011;32412;51.478;5.694;2022-10-31T15:51:31;11.50;;;6.05;;
46675;SDS011;32412;51.478;5.694;2022-10-31T15:53:59;14.27;;;5.75;;
46675;SDS011;32412;51.478;5.694;2022-10-31T15:56:28;12.30;;;6.78;;
46675;SDS011;32412;51.478;5.694;2022-10-31T15:58:56;14.18;;;6.28;;
46675;SDS011;32412;51.478;5.694;2022-10-31T16:01:30;18.67;;;6.30;;
46675;SDS011;32412;51.478;5.694;2022-10-31T16:06:24;12.10;;;5.75;;
46675;SDS011;32412;51.478;5.694;2022-10-31T16:08:50;17.50;;;6.30;;
46675;SDS011;32412;51.478;5.694;2022-10-31T16:13:59;10.23;;;5.38;;
46675;SDS011;32412;51.478;5.694;2022-10-31T16:16:32;15.25;;;5.75;;
46675;SDS011;32412;51.478;5.694;2022-10-31T16:18:59;9.80;;;5.78;;
46675;SDS011;32412;51.478;5.694;2022-10-31T16:21:36;9.93;;;5.03;;
46675;SDS011;32412;51.478;5.694;2022-10-31T16:24:25;12.43;;;5.85;;
46675;SDS011;32412;51.478;5.694;2022-10-31T16:27:03;10.00;;;5.35;;
46675;SDS011;32412;51.478;5.694;2022-10-31T16:29:36;13.23;;;5.70;;
46675;SDS011;32412;51.478;5.694;2022-10-31T16:35:37;8.95;;;5.38;;
46675;SDS011;32412;51.478;5.694;2022-10-31T16:37:49;15.75;;;6.20;;
46675;SDS011;32412;51.478;5.694;2022-10-31T16:40:15;11.93;;;5.43;;
46675;SDS011;32412;51.478;5.694;2022-10-31T16:42:41;16.85;;;6.28;;
46675;SDS011;32412;51.478;5.694;2022-10-31T16:45:12;13.00;;;5.88;;
46675;SDS011;32412;51.478;5.694;2022-10-31T16:47:50;11.02;;;5.72;;
46675;SDS011;32412;51.478;5.694;2022-10-31T16:50:20;16.20;;;6.72;;
46675;SDS011;32412;51.478;5.694;2022-10-31T16:52:48;13.60;;;5.78;;
46675;SDS011;32412;51.478;5.694;2022-10-31T16:55:14;10.18;;;5.78;;
46675;SDS011;32412;51.478;5.694;2022-10-31T16:57:45;12.00;;;5.47;;
46675;SDS011;32412;51.478;5.694;2022-10-31T17:00:17;15.65;;;6.25;;
46675;SDS011;32412;51.478;5.694;2022-10-31T17:02:45;16.00;;;6.50;;
46675;SDS011;32412;51.478;5.694;2022-10-31T17:05:12;16.33;;;5.38;;
46675;SDS011;32412;51.478;5.694;2022-10-31T17:07:39;8.20;;;5.20;;
46675;SDS011;32412;51.478;5.694;2022-10-31T17:10:06;11.88;;;5.50;;
46675;SDS011;32412;51.478;5.694;2022-10-31T17:12:32;10.85;;;6.25;;
46675;SDS011;32412;51.478;5.694;2022-10-31T17:14:58;11.68;;;6.63;;